Terminal Aerodrome Forecast
Issued by NWS Billings, MT

Home | Current Version | Previous Version | Text Only | Print | Product List | Glossary On
Versions: 1 2 3 4 5 6 7 8 9 10 11 12 13 14 15 16 17 18 19 20
000
FTUS45 KBYZ 221120
TAFMLS
TAF
KMLS 221120Z 2212/2312 VRB06KT P6SM VCSH BKN050 OVC100
      TEMPO 2212/2215 31011KT 3SM SHRASN BKN015 OVC030
     FM221500 36011KT 2SM -SHSN BKN015 OVC030
     FM222100 03010KT 5SM -SHSN OVC025
     FM230100 07010KT P6SM SCT030 BKN070=

USA.gov is the U.S. government's official web portal to all federal, state and local government web resources and services.